createdAt,value
2023-03-17T00:02:46.822Z,7.05
2023-03-17T00:05:48.287Z,5.50
2023-03-17T00:08:49.580Z,6.95
2023-03-17T00:11:50.961Z,9.88
2023-03-17T00:14:52.284Z,6.20
2023-03-17T00:17:54.573Z,4.55
2023-03-17T00:20:55.906Z,6.47
2023-03-17T00:23:57.612Z,7.63
2023-03-17T00:26:59.030Z,5.82
2023-03-17T00:30:00.379Z,3.58
2023-03-17T00:33:01.779Z,3.13
2023-03-17T00:36:03.346Z,3.25
2023-03-17T00:39:06.501Z,3.22
2023-03-17T00:42:07.955Z,4.32
2023-03-17T00:45:10.129Z,3.00
2023-03-17T00:48:15.801Z,4.22
2023-03-17T00:51:17.358Z,2.78
2023-03-17T00:54:20.632Z,2.92
2023-03-17T00:57:22.660Z,2.58
2023-03-17T01:00:25.427Z,1.98
2023-03-17T01:03:27.546Z,2.88
2023-03-17T01:06:28.996Z,2.38
2023-03-17T01:09:30.841Z,4.32
2023-03-17T01:12:33.036Z,2.60
2023-03-17T01:15:34.441Z,2.20
2023-03-17T01:18:35.753Z,2.60
2023-03-17T01:21:37.056Z,3.50
2023-03-17T01:24:38.960Z,3.95
2023-03-17T01:27:41.694Z,4.43
2023-03-17T01:30:43.752Z,4.45
2023-03-17T01:33:45.396Z,6.40
2023-03-17T01:36:47.373Z,3.85
2023-03-17T01:39:48.667Z,4.15
2023-03-17T01:43:02.169Z,2.78
2023-03-17T01:46:22.322Z,3.10
2023-03-17T01:49:37.405Z,3.72
2023-03-17T01:52:39.753Z,3.75
2023-03-17T01:55:41.789Z,4.28
2023-03-17T01:58:43.561Z,3.38
2023-03-17T02:01:47.217Z,5.32
2023-03-17T02:04:50.374Z,5.57
2023-03-17T02:07:55.562Z,4.68
2023-03-17T02:10:57.239Z,4.80
2023-03-17T02:13:58.602Z,4.13
2023-03-17T02:16:59.954Z,6.15
2023-03-17T02:20:17.040Z,3.85
2023-03-17T02:23:22.231Z,6.25
2023-03-17T02:26:24.632Z,5.40
2023-03-17T02:29:25.963Z,3.92
2023-03-17T02:32:27.356Z,3.67
2023-03-17T02:35:28.884Z,4.50
2023-03-17T02:38:30.178Z,4.53
2023-03-17T02:41:32.552Z,6.53
2023-03-17T02:44:33.865Z,5.30
2023-03-17T02:47:35.599Z,6.72
2023-03-17T02:50:37.398Z,5.10
2023-03-17T02:53:38.660Z,4.50
2023-03-17T02:56:40.043Z,4.40
2023-03-17T02:59:41.637Z,4.57
2023-03-17T03:02:42.998Z,4.32
2023-03-17T03:05:44.338Z,5.95
2023-03-17T03:08:46.052Z,5.15
2023-03-17T03:11:47.512Z,7.75
2023-03-17T03:14:48.904Z,5.57
2023-03-17T03:17:50.700Z,5.35
2023-03-17T03:20:51.948Z,4.57
2023-03-17T03:23:53.195Z,3.90
2023-03-17T03:26:54.436Z,2.50
2023-03-17T03:29:55.866Z,4.60
2023-03-17T03:32:57.169Z,4.13
2023-03-17T03:35:59.291Z,3.30
2023-03-17T03:39:01.143Z,3.85
2023-03-17T03:42:02.382Z,3.97
2023-03-17T03:45:04.178Z,5.30
2023-03-17T03:48:05.546Z,6.05
2023-03-17T03:51:07.031Z,4.03
2023-03-17T03:54:08.314Z,3.90
2023-03-17T03:57:09.605Z,6.85
2023-03-17T04:00:11.612Z,6.32
2023-03-17T04:03:13.643Z,5.97
2023-03-17T04:06:14.929Z,4.43
2023-03-17T04:09:16.192Z,5.60
2023-03-17T04:12:17.899Z,4.45
2023-03-17T04:15:19.730Z,3.42
2023-03-17T04:18:21.007Z,4.20
2023-03-17T04:21:22.317Z,2.85
2023-03-17T04:24:23.639Z,3.65
2023-03-17T04:27:24.966Z,4.15
2023-03-17T04:30:26.338Z,4.47
2023-03-17T04:33:27.623Z,6.60
2023-03-17T04:36:29.013Z,3.80
2023-03-17T04:39:30.301Z,3.08
2023-03-17T04:42:31.640Z,4.60
2023-03-17T04:45:33.267Z,4.63
2023-03-17T04:48:35.255Z,4.80
2023-03-17T04:51:36.903Z,3.42
2023-03-17T04:54:38.225Z,2.25
2023-03-17T04:57:39.496Z,5.38
2023-03-17T05:00:41.131Z,3.97
2023-03-17T05:03:42.457Z,5.82
2023-03-17T05:06:43.784Z,3.42
2023-03-17T05:09:45.033Z,3.05
2023-03-17T05:12:46.361Z,4.68
2023-03-17T05:15:48.410Z,3.75
2023-03-17T05:18:49.681Z,3.58
2023-03-17T05:21:51.492Z,4.38
2023-03-17T05:24:52.770Z,3.17
2023-03-17T05:27:54.065Z,3.63
2023-03-17T05:30:55.530Z,4.78
2023-03-17T05:33:57.095Z,3.40
2023-03-17T05:36:58.347Z,4.90
2023-03-17T05:40:00.066Z,4.18
2023-03-17T05:43:01.844Z,4.20
2023-03-17T05:46:03.816Z,5.00
2023-03-17T05:49:05.140Z,5.13
2023-03-17T05:52:06.482Z,5.10
2023-03-17T05:55:08.346Z,4.38
2023-03-17T05:58:09.682Z,7.07
2023-03-17T06:01:11.059Z,6.22
2023-03-17T06:04:12.589Z,5.38
2023-03-17T06:07:13.911Z,3.80
2023-03-17T06:10:15.347Z,7.75
2023-03-17T06:13:16.715Z,9.60
2023-03-17T06:16:18.152Z,6.72
2023-03-17T06:19:19.423Z,6.97
2023-03-17T06:22:20.808Z,6.90
2023-03-17T06:25:22.250Z,9.80
2023-03-17T06:28:24.045Z,7.05
2023-03-17T06:31:25.519Z,7.90
2023-03-17T06:34:27.418Z,4.88
2023-03-17T06:37:29.800Z,10.80
2023-03-17T06:40:32.058Z,8.80
2023-03-17T06:43:33.422Z,6.65
2023-03-17T06:46:34.961Z,6.88
2023-03-17T06:49:36.384Z,8.25
2023-03-17T06:52:38.370Z,7.18
2023-03-17T06:55:39.650Z,6.97
2023-03-17T06:58:41.833Z,7.32
2023-03-17T07:01:44.226Z,5.15
2023-03-17T07:04:45.600Z,9.20
2023-03-17T07:07:47.140Z,9.45
2023-03-17T07:10:48.911Z,8.70
2023-03-17T07:13:50.977Z,13.77
2023-03-17T07:16:52.396Z,7.47
2023-03-17T07:19:53.712Z,8.80
2023-03-17T07:22:55.001Z,8.48
2023-03-17T07:25:57.386Z,9.57
2023-03-17T07:29:01.282Z,8.82
2023-03-17T07:32:04.018Z,9.43
2023-03-17T07:35:05.805Z,8.35
2023-03-17T07:38:07.305Z,10.35
2023-03-17T07:41:10.780Z,8.57
2023-03-17T07:44:12.482Z,6.47
2023-03-17T07:47:14.676Z,7.05
2023-03-17T07:50:16.583Z,9.27
2023-03-17T07:53:18.473Z,5.85
2023-03-17T07:56:19.822Z,7.80
2023-03-17T07:59:21.176Z,5.75
2023-03-17T08:02:22.639Z,5.32
2023-03-17T08:05:24.185Z,6.13
2023-03-17T08:08:25.749Z,7.13
2023-03-17T08:11:29.361Z,12.43
2023-03-17T08:14:30.781Z,5.45
2023-03-17T08:17:32.518Z,7.75
2023-03-17T08:20:34.884Z,4.95
2023-03-17T08:23:36.564Z,6.57
2023-03-17T08:26:38.132Z,7.88
2023-03-17T08:29:39.735Z,6.57
2023-03-17T08:32:41.169Z,4.95
2023-03-17T08:35:42.693Z,7.78
2023-03-17T08:38:44.810Z,5.78
2023-03-17T08:41:46.459Z,6.75
2023-03-17T08:44:47.771Z,5.85
2023-03-17T08:47:49.072Z,5.25
2023-03-17T08:50:50.512Z,6.35
2023-03-17T08:53:52.535Z,6.35
2023-03-17T08:56:53.899Z,6.40
2023-03-17T08:59:55.847Z,8.43
2023-03-17T09:02:58.757Z,6.78
2023-03-17T09:06:00.437Z,6.70
2023-03-17T09:09:01.724Z,6.55
2023-03-17T09:12:05.594Z,5.60
2023-03-17T09:15:07.647Z,6.63
2023-03-17T09:18:09.313Z,4.75
2023-03-17T09:21:13.872Z,4.47
2023-03-17T09:24:15.432Z,5.32
2023-03-17T09:27:16.773Z,5.40
2023-03-17T09:30:18.770Z,5.45
2023-03-17T09:33:20.070Z,5.40
2023-03-17T09:36:21.323Z,5.95
2023-03-17T09:39:24.046Z,5.22
2023-03-17T09:42:35.039Z,5.53
2023-03-17T09:45:42.915Z,6.78
2023-03-17T09:48:49.921Z,6.03
2023-03-17T09:51:51.560Z,5.20
2023-03-17T09:54:52.856Z,7.50
2023-03-17T09:57:55.860Z,5.15
2023-03-17T10:00:57.518Z,6.20
2023-03-17T10:03:58.840Z,6.07
2023-03-17T10:07:04.911Z,7.65
2023-03-17T10:10:15.264Z,6.28
2023-03-17T10:16:36.389Z,5.93
2023-03-17T10:19:37.724Z,5.75
2023-03-17T10:22:42.077Z,5.60
2023-03-17T10:25:43.390Z,5.55
2023-03-17T10:28:45.008Z,6.22
2023-03-17T10:31:46.532Z,4.32
2023-03-17T10:34:48.559Z,5.95
2023-03-17T10:37:49.877Z,5.35
2023-03-17T10:40:56.437Z,7.03
2023-03-17T10:43:57.774Z,5.45
2023-03-17T10:46:59.269Z,6.10
2023-03-17T10:50:16.879Z,7.82
2023-03-17T10:53:30.588Z,6.60
2023-03-17T10:56:34.892Z,6.85
2023-03-17T10:59:44.579Z,6.10
2023-03-17T11:02:48.422Z,5.57
2023-03-17T11:06:10.163Z,5.25
2023-03-17T11:09:21.253Z,6.10
2023-03-17T11:12:25.479Z,6.20
2023-03-17T11:15:31.407Z,5.65
2023-03-17T11:18:35.789Z,6.38
2023-03-17T11:22:00.008Z,5.80
2023-03-17T11:25:14.985Z,5.35
2023-03-17T11:28:20.618Z,6.45
2023-03-17T11:31:28.085Z,5.43
2023-03-17T11:34:35.360Z,7.65
2023-03-17T11:37:39.513Z,8.95
2023-03-17T11:41:17.247Z,4.70
2023-03-17T11:44:28.886Z,4.90
2023-03-17T11:47:48.573Z,5.22
2023-03-17T11:50:49.788Z,6.00
2023-03-17T11:54:02.876Z,6.95
2023-03-17T11:57:08.103Z,6.38
2023-03-17T12:00:28.307Z,5.30
2023-03-17T12:03:35.910Z,5.45
2023-03-17T12:06:41.888Z,5.43
2023-03-17T12:10:09.478Z,4.18
2023-03-17T12:13:20.229Z,4.93
2023-03-17T12:16:34.263Z,6.22
2023-03-17T12:19:52.303Z,4.88
2023-03-17T12:22:57.114Z,5.75
2023-03-17T12:26:16.747Z,4.68
2023-03-17T12:29:21.933Z,5.07
2023-03-17T12:32:36.174Z,4.20
2023-03-17T12:35:38.939Z,4.18
2023-03-17T12:38:59.148Z,4.50
2023-03-17T12:42:23.626Z,4.47
2023-03-17T12:45:37.255Z,4.55
2023-03-17T12:48:50.973Z,4.38
2023-03-17T12:52:02.984Z,4.35
2023-03-17T12:55:09.578Z,5.15
2023-03-17T12:58:28.981Z,4.38
2023-03-17T13:01:59.604Z,3.13
2023-03-17T13:05:05.135Z,3.33
2023-03-17T13:08:10.760Z,3.97
2023-03-17T13:11:31.006Z,4.15
2023-03-17T13:14:47.685Z,3.25
2023-03-17T13:17:49.354Z,4.75
2023-03-17T13:20:50.577Z,3.28
2023-03-17T13:24:11.368Z,3.55
2023-03-17T13:27:14.400Z,4.10
2023-03-17T13:30:26.754Z,5.15
2023-03-17T13:33:31.090Z,4.43
2023-03-17T13:36:32.440Z,8.63
2023-03-17T13:40:07.900Z,7.32
2023-03-17T13:43:21.298Z,3.90
2023-03-17T13:46:26.823Z,6.20
2023-03-17T13:49:29.652Z,5.85
2023-03-17T13:52:32.866Z,5.70
2023-03-17T13:55:37.888Z,5.50
2023-03-17T13:58:50.697Z,4.00
2023-03-17T14:02:00.745Z,3.70
2023-03-17T14:05:18.203Z,4.38
2023-03-17T14:08:28.819Z,4.30
2023-03-17T14:11:32.927Z,5.65
2023-03-17T14:14:38.197Z,5.38
2023-03-17T14:18:03.654Z,5.55
2023-03-17T14:21:10.526Z,5.53
2023-03-17T14:24:21.235Z,5.22
2023-03-17T14:27:24.085Z,5.05
2023-03-17T14:30:32.406Z,4.70
2023-03-17T14:33:38.080Z,5.22
2023-03-17T14:36:39.594Z,7.55
2023-03-17T14:39:45.238Z,4.97
2023-03-17T14:42:46.616Z,5.75
2023-03-17T14:45:59.669Z,5.32
2023-03-17T14:49:04.435Z,4.78
2023-03-17T14:52:06.080Z,5.65
2023-03-17T14:55:08.216Z,4.93
2023-03-17T14:58:18.228Z,7.57
2023-03-17T15:01:32.408Z,5.30
2023-03-17T15:04:34.062Z,4.20
2023-03-17T15:07:39.809Z,4.18
2023-03-17T15:10:42.973Z,7.55
2023-03-17T15:13:44.365Z,5.90
2023-03-17T15:16:49.568Z,12.73
2023-03-17T15:19:52.603Z,5.97
2023-03-17T15:22:58.964Z,5.30
2023-03-17T15:26:02.900Z,4.32
2023-03-17T15:29:04.238Z,5.75
2023-03-17T15:32:15.455Z,5.82
2023-03-17T15:35:16.891Z,5.45
2023-03-17T15:38:18.142Z,7.55
2023-03-17T15:41:19.599Z,9.05
2023-03-17T15:44:20.937Z,4.35
2023-03-17T15:47:23.620Z,5.28
2023-03-17T15:50:26.516Z,7.30
2023-03-17T15:53:28.189Z,5.68
2023-03-17T15:56:29.444Z,7.00
2023-03-17T15:59:30.693Z,6.97
2023-03-17T16:02:33.412Z,7.90
2023-03-17T16:05:35.997Z,4.82
2023-03-17T16:08:38.409Z,7.07
2023-03-17T16:11:40.544Z,7.28
2023-03-17T16:14:42.716Z,5.43
2023-03-17T16:17:44.894Z,7.00
2023-03-17T16:20:47.715Z,5.55
2023-03-17T16:23:49.144Z,3.92
2023-03-17T16:26:50.876Z,6.03
2023-03-17T16:29:52.180Z,5.07
2023-03-17T16:32:54.553Z,4.03
2023-03-17T16:35:57.440Z,6.05
2023-03-17T16:38:59.257Z,4.65
2023-03-17T16:42:00.967Z,3.67
2023-03-17T16:45:02.270Z,4.35
2023-03-17T16:48:04.014Z,5.65
2023-03-17T16:51:05.579Z,4.47
2023-03-17T16:54:06.863Z,5.15
2023-03-17T16:57:11.432Z,5.57
2023-03-17T17:00:20.334Z,6.35
2023-03-17T17:03:21.669Z,4.28
2023-03-17T17:06:23.533Z,5.78
2023-03-17T17:09:24.848Z,5.07
2023-03-17T17:12:26.157Z,7.82
2023-03-17T17:15:28.797Z,7.47
2023-03-17T17:18:30.455Z,7.97
2023-03-17T17:21:32.985Z,9.48
2023-03-17T17:24:34.321Z,11.43
2023-03-17T17:27:40.197Z,13.68
2023-03-17T17:30:44.928Z,15.32
2023-03-17T17:33:46.240Z,11.35
2023-03-17T17:36:47.583Z,12.45
2023-03-17T17:39:49.098Z,14.25
2023-03-17T17:42:51.016Z,9.98
2023-03-17T17:45:52.830Z,10.43
2023-03-17T17:48:54.158Z,9.00
2023-03-17T17:51:55.478Z,9.18
2023-03-17T17:54:57.117Z,11.75
2023-03-17T17:57:58.529Z,11.25
2023-03-17T18:00:59.973Z,9.05
2023-03-17T18:04:01.316Z,8.80
2023-03-17T18:07:02.577Z,11.85
2023-03-17T18:10:05.010Z,11.50
2023-03-17T18:13:06.268Z,6.75
2023-03-17T18:16:09.980Z,6.70
2023-03-17T18:19:12.558Z,4.40
2023-03-17T18:22:14.603Z,5.80
2023-03-17T18:25:16.171Z,4.60
2023-03-17T18:28:17.896Z,4.20
2023-03-17T18:31:22.229Z,5.18
2023-03-17T18:34:32.343Z,11.70
2023-03-17T18:37:34.661Z,13.35
2023-03-17T18:40:36.408Z,12.73
2023-03-17T18:43:38.144Z,8.57
2023-03-17T18:46:39.553Z,6.70
2023-03-17T18:49:40.852Z,6.78
2023-03-17T18:52:43.587Z,6.15
2023-03-17T18:55:45.424Z,7.97
2023-03-17T18:58:47.196Z,9.85
2023-03-17T19:01:48.468Z,7.30
2023-03-17T19:04:49.785Z,10.50
2023-03-17T19:07:51.164Z,7.13
2023-03-17T19:10:52.552Z,7.75
2023-03-17T19:13:53.908Z,6.88
2023-03-17T19:16:55.553Z,7.50
2023-03-17T19:19:56.996Z,11.15
2023-03-17T19:22:58.362Z,10.38
2023-03-17T19:25:59.783Z,8.68
2023-03-17T19:29:01.452Z,8.02
2023-03-17T19:32:02.820Z,7.10
2023-03-17T19:35:04.282Z,5.45
2023-03-17T19:38:08.078Z,9.77
2023-03-17T19:41:09.508Z,6.28
2023-03-17T19:44:10.919Z,10.35
2023-03-17T19:47:12.270Z,6.47
2023-03-17T19:50:14.556Z,6.70
2023-03-17T19:53:16.444Z,8.02
2023-03-17T19:56:17.935Z,6.25
2023-03-17T19:59:19.750Z,8.93
2023-03-17T20:02:21.433Z,10.00
2023-03-17T20:05:22.683Z,8.13
2023-03-17T20:08:24.681Z,7.75
2023-03-17T20:11:27.143Z,7.93
2023-03-17T20:14:28.447Z,8.82
2023-03-17T20:17:29.774Z,11.15
2023-03-17T20:20:31.326Z,8.40
2023-03-17T20:23:33.232Z,9.82
2023-03-17T20:26:34.560Z,7.57
2023-03-17T20:29:36.497Z,6.57
2023-03-17T20:32:38.048Z,7.32
2023-03-17T20:35:40.370Z,6.72
2023-03-17T20:38:43.639Z,14.80
2023-03-17T20:41:48.202Z,11.52
2023-03-17T20:44:56.792Z,7.78
2023-03-17T20:47:58.140Z,7.35
2023-03-17T20:51:00.264Z,10.50
2023-03-17T20:54:05.177Z,14.73
2023-03-17T20:57:07.137Z,8.52
2023-03-17T21:00:12.620Z,9.10
2023-03-17T21:03:13.887Z,9.82
2023-03-17T21:06:15.264Z,9.60
2023-03-17T21:09:16.651Z,11.15
2023-03-17T21:12:18.906Z,8.57
2023-03-17T21:15:22.815Z,11.52
2023-03-17T21:18:24.166Z,15.00
2023-03-17T21:21:25.788Z,12.25
2023-03-17T21:24:32.353Z,12.32
2023-03-17T21:27:34.168Z,7.47
2023-03-17T21:30:36.862Z,10.68
2023-03-17T21:33:38.313Z,9.82
2023-03-17T21:36:39.608Z,10.82
2023-03-17T21:39:40.967Z,10.40
2023-03-17T21:42:42.429Z,10.85
2023-03-17T21:45:44.265Z,10.88
2023-03-17T21:48:45.686Z,11.38
2023-03-17T21:51:47.075Z,10.25
2023-03-17T21:54:48.875Z,9.18
2023-03-17T21:57:50.470Z,10.75
2023-03-17T22:00:52.213Z,9.10
2023-03-17T22:03:53.734Z,9.38
2023-03-17T22:06:55.901Z,7.38
2023-03-17T22:09:57.811Z,8.85
2023-03-17T22:12:59.131Z,8.23
2023-03-17T22:16:00.482Z,7.85
2023-03-17T22:19:01.832Z,7.20
2023-03-17T22:22:03.727Z,9.93
2023-03-17T22:25:06.161Z,8.68
2023-03-17T22:28:08.576Z,7.95
2023-03-17T22:31:17.633Z,9.27
2023-03-17T22:34:19.337Z,10.20
2023-03-17T22:37:20.702Z,8.52
2023-03-17T22:40:22.375Z,9.90
2023-03-17T22:43:23.688Z,9.02
2023-03-17T22:46:25.051Z,9.35
2023-03-17T22:49:26.448Z,9.23
2023-03-17T22:52:27.817Z,7.90
2023-03-17T22:55:29.125Z,9.40
2023-03-17T22:58:30.815Z,8.68
2023-03-17T23:01:33.302Z,8.52
2023-03-17T23:04:35.883Z,9.05
2023-03-17T23:07:49.529Z,9.13
2023-03-17T23:10:51.084Z,8.43
2023-03-17T23:13:53.053Z,8.30
2023-03-17T23:16:54.716Z,6.60
2023-03-17T23:19:56.167Z,9.40
2023-03-17T23:22:57.922Z,8.95
2023-03-17T23:25:59.445Z,11.48
2023-03-17T23:29:00.750Z,9.50
2023-03-17T23:32:02.122Z,9.77
2023-03-17T23:35:03.648Z,7.75
2023-03-17T23:38:05.006Z,10.27
2023-03-17T23:41:07.556Z,9.35
2023-03-17T23:44:09.824Z,6.65
2023-03-17T23:47:11.229Z,7.22
2023-03-17T23:50:13.345Z,10.90
2023-03-17T23:53:14.796Z,9.25
2023-03-17T23:56:16.164Z,8.10
2023-03-17T23:59:17.665Z,8.35
